sensor_id;sensor_type;location;lat;lon;timestamp;pressure;altitude;pressure_sealevel;temperature;humidity
41690;BME280;27372;42.658;23.256;2023-04-24T00:00:15;93553.47;;;10.13;71.90
41690;BME280;27372;42.658;23.256;2023-04-24T00:02:44;93551.47;;;10.20;71.64
41690;BME280;27372;42.658;23.256;2023-04-24T00:05:16;93548.38;;;10.23;71.40
41690;BME280;27372;42.658;23.256;2023-04-24T00:07:43;93546.31;;;10.25;70.04
41690;BME280;27372;42.658;23.256;2023-04-24T00:10:09;93546.00;;;10.21;70.73
41690;BME280;27372;42.658;23.256;2023-04-24T00:12:35;93534.84;;;10.14;70.84
41690;BME280;27372;42.658;23.256;2023-04-24T00:15:01;93541.22;;;10.01;71.64
41690;BME280;27372;42.658;23.256;2023-04-24T00:17:27;93533.66;;;10.22;71.23
41690;BME280;27372;42.658;23.256;2023-04-24T00:19:52;93522.75;;;10.47;69.42
41690;BME280;27372;42.658;23.256;2023-04-24T00:22:27;93536.44;;;10.66;68.61
41690;BME280;27372;42.658;23.256;2023-04-24T00:24:53;93529.03;;;10.63;70.07
41690;BME280;27372;42.658;23.256;2023-04-24T00:27:18;93540.84;;;10.83;69.34
41690;BME280;27372;42.658;23.256;2023-04-24T00:29:44;93533.56;;;10.90;69.15
41690;BME280;27372;42.658;23.256;2023-04-24T00:32:10;93528.69;;;10.99;68.30
41690;BME280;27372;42.658;23.256;2023-04-24T00:34:35;93539.97;;;10.99;68.10
41690;BME280;27372;42.658;23.256;2023-04-24T00:37:01;93538.41;;;10.98;69.46
41690;BME280;27372;42.658;23.256;2023-04-24T00:39:26;93537.03;;;10.96;69.09
41690;BME280;27372;42.658;23.256;2023-04-24T00:41:52;93537.50;;;10.70;69.35
41690;BME280;27372;42.658;23.256;2023-04-24T00:44:18;93531.66;;;10.29;71.50
41690;BME280;27372;42.658;23.256;2023-04-24T00:46:43;93525.06;;;10.26;71.76
41690;BME280;27372;42.658;23.256;2023-04-24T00:49:09;93532.78;;;10.33;71.57
41690;BME280;27372;42.658;23.256;2023-04-24T00:51:34;93525.47;;;10.18;70.79
41690;BME280;27372;42.658;23.256;2023-04-24T00:54:01;93539.78;;;10.45;69.88
41690;BME280;27372;42.658;23.256;2023-04-24T00:56:28;93541.69;;;10.32;70.68
41690;BME280;27372;42.658;23.256;2023-04-24T00:58:53;93525.13;;;10.49;69.94
41690;BME280;27372;42.658;23.256;2023-04-24T01:01:20;93522.72;;;10.64;69.01
41690;BME280;27372;42.658;23.256;2023-04-24T01:03:47;93517.63;;;10.75;68.62
41690;BME280;27372;42.658;23.256;2023-04-24T01:06:14;93512.53;;;10.68;70.58
41690;BME280;27372;42.658;23.256;2023-04-24T01:08:41;93496.44;;;10.81;72.37
41690;BME280;27372;42.658;23.256;2023-04-24T01:11:07;93492.69;;;10.99;72.13
41690;BME280;27372;42.658;23.256;2023-04-24T01:13:33;93499.91;;;11.09;74.26
41690;BME280;27372;42.658;23.256;2023-04-24T01:15:59;93480.34;;;11.00;75.75
41690;BME280;27372;42.658;23.256;2023-04-24T01:18:26;93476.88;;;10.94;76.14
41690;BME280;27372;42.658;23.256;2023-04-24T01:20:53;93495.13;;;11.06;76.83
41690;BME280;27372;42.658;23.256;2023-04-24T01:23:22;93495.63;;;10.81;76.74
41690;BME280;27372;42.658;23.256;2023-04-24T01:25:48;93494.19;;;10.51;80.02
41690;BME280;27372;42.658;23.256;2023-04-24T01:28:14;93505.25;;;10.53;80.22
41690;BME280;27372;42.658;23.256;2023-04-24T01:30:40;93477.50;;;10.40;82.35
41690;BME280;27372;42.658;23.256;2023-04-24T01:33:05;93490.78;;;9.82;83.58
41690;BME280;27372;42.658;23.256;2023-04-24T01:35:31;93492.69;;;9.53;86.09
41690;BME280;27372;42.658;23.256;2023-04-24T01:37:57;93481.44;;;9.86;82.69
41690;BME280;27372;42.658;23.256;2023-04-24T01:40:22;93476.91;;;9.82;81.69
41690;BME280;27372;42.658;23.256;2023-04-24T01:42:47;93499.63;;;9.30;85.37
41690;BME280;27372;42.658;23.256;2023-04-24T01:45:13;93486.81;;;9.62;83.29
41690;BME280;27372;42.658;23.256;2023-04-24T01:47:38;93490.09;;;9.70;82.35
41690;BME280;27372;42.658;23.256;2023-04-24T01:50:05;93481.75;;;9.56;82.24
41690;BME280;27372;42.658;23.256;2023-04-24T01:52:30;93480.47;;;9.92;81.52
41690;BME280;27372;42.658;23.256;2023-04-24T01:54:59;93483.88;;;10.10;78.98
41690;BME280;27372;42.658;23.256;2023-04-24T01:57:25;93501.06;;;9.84;82.67
41690;BME280;27372;42.658;23.256;2023-04-24T01:59:51;93482.13;;;9.64;84.48
41690;BME280;27372;42.658;23.256;2023-04-24T02:02:17;93489.66;;;9.44;84.65
41690;BME280;27372;42.658;23.256;2023-04-24T02:04:42;93492.91;;;8.93;86.93
41690;BME280;27372;42.658;23.256;2023-04-24T02:07:07;93493.94;;;9.21;86.25
41690;BME280;27372;42.658;23.256;2023-04-24T02:09:33;93488.31;;;8.72;87.01
41690;BME280;27372;42.658;23.256;2023-04-24T02:11:58;93494.38;;;8.36;89.40
41690;BME280;27372;42.658;23.256;2023-04-24T02:14:24;93477.19;;;8.29;90.03
41690;BME280;27372;42.658;23.256;2023-04-24T02:16:49;93496.50;;;8.39;89.78
41690;BME280;27372;42.658;23.256;2023-04-24T02:19:15;93481.84;;;8.27;89.37
41690;BME280;27372;42.658;23.256;2023-04-24T02:21:41;93482.41;;;8.05;90.02
41690;BME280;27372;42.658;23.256;2023-04-24T02:24:06;93477.19;;;8.05;89.99
41690;BME280;27372;42.658;23.256;2023-04-24T02:26:32;93479.25;;;8.38;89.80
41690;BME280;27372;42.658;23.256;2023-04-24T02:28:57;93475.69;;;8.45;88.85
41690;BME280;27372;42.658;23.256;2023-04-24T02:31:22;93475.44;;;8.70;89.27
41690;BME280;27372;42.658;23.256;2023-04-24T02:33:48;93462.03;;;8.66;89.71
41690;BME280;27372;42.658;23.256;2023-04-24T02:36:13;93462.06;;;8.54;90.70
41690;BME280;27372;42.658;23.256;2023-04-24T02:38:39;93457.25;;;8.63;89.95
41690;BME280;27372;42.658;23.256;2023-04-24T02:41:04;93460.41;;;8.77;89.74
41690;BME280;27372;42.658;23.256;2023-04-24T02:43:32;93458.31;;;8.50;89.44
41690;BME280;27372;42.658;23.256;2023-04-24T02:45:58;93458.06;;;8.64;88.97
41690;BME280;27372;42.658;23.256;2023-04-24T02:48:23;93451.06;;;8.81;87.52
41690;BME280;27372;42.658;23.256;2023-04-24T02:50:49;93454.25;;;8.83;86.04
41690;BME280;27372;42.658;23.256;2023-04-24T02:53:15;93448.31;;;8.76;86.57
41690;BME280;27372;42.658;23.256;2023-04-24T02:55:41;93455.34;;;8.88;87.17
41690;BME280;27372;42.658;23.256;2023-04-24T02:58:07;93451.34;;;8.97;85.54
41690;BME280;27372;42.658;23.256;2023-04-24T03:00:32;93456.94;;;8.89;85.72
41690;BME280;27372;42.658;23.256;2023-04-24T03:02:57;93439.88;;;8.86;84.67
41690;BME280;27372;42.658;23.256;2023-04-24T03:05:23;93470.16;;;8.94;84.35
41690;BME280;27372;42.658;23.256;2023-04-24T03:07:49;93474.47;;;8.47;84.95
41690;BME280;27372;42.658;23.256;2023-04-24T03:10:15;93474.31;;;8.66;85.18
41690;BME280;27372;42.658;23.256;2023-04-24T03:12:40;93464.59;;;8.90;83.91
41690;BME280;27372;42.658;23.256;2023-04-24T03:15:06;93464.97;;;8.70;85.95
41690;BME280;27372;42.658;23.256;2023-04-24T03:17:32;93467.13;;;8.73;85.30
41690;BME280;27372;42.658;23.256;2023-04-24T03:19:57;93480.97;;;8.85;84.58
41690;BME280;27372;42.658;23.256;2023-04-24T03:22:23;93473.72;;;8.76;83.91
41690;BME280;27372;42.658;23.256;2023-04-24T03:24:48;93470.69;;;8.43;83.04
41690;BME280;27372;42.658;23.256;2023-04-24T03:27:14;93472.72;;;8.65;81.95
41690;BME280;27372;42.658;23.256;2023-04-24T03:29:39;93478.63;;;8.72;81.60
41690;BME280;27372;42.658;23.256;2023-04-24T03:32:05;93471.94;;;8.40;82.86
41690;BME280;27372;42.658;23.256;2023-04-24T03:34:30;93454.63;;;8.63;82.12
41690;BME280;27372;42.658;23.256;2023-04-24T03:36:55;93465.63;;;8.77;81.34
41690;BME280;27372;42.658;23.256;2023-04-24T03:39:21;93468.25;;;8.89;81.46
41690;BME280;27372;42.658;23.256;2023-04-24T03:41:46;93464.72;;;8.83;80.85
41690;BME280;27372;42.658;23.256;2023-04-24T03:44:12;93465.63;;;8.89;80.34
41690;BME280;27372;42.658;23.256;2023-04-24T03:46:37;93470.31;;;8.75;79.18
41690;BME280;27372;42.658;23.256;2023-04-24T03:49:02;93456.03;;;8.30;81.43
41690;BME280;27372;42.658;23.256;2023-04-24T03:51:28;93466.34;;;8.73;80.00
41690;BME280;27372;42.658;23.256;2023-04-24T03:53:55;93463.72;;;9.01;79.26
41690;BME280;27372;42.658;23.256;2023-04-24T03:56:20;93476.56;;;9.15;78.92
41690;BME280;27372;42.658;23.256;2023-04-24T03:58:46;93459.75;;;8.99;78.58
41690;BME280;27372;42.658;23.256;2023-04-24T04:01:11;93464.63;;;9.07;78.93
41690;BME280;27372;42.658;23.256;2023-04-24T04:03:37;93464.34;;;9.21;79.43
41690;BME280;27372;42.658;23.256;2023-04-24T04:06:02;93471.00;;;9.11;79.10
41690;BME280;27372;42.658;23.256;2023-04-24T04:08:28;93472.50;;;9.53;76.78
41690;BME280;27372;42.658;23.256;2023-04-24T04:10:53;93452.56;;;9.69;74.33
41690;BME280;27372;42.658;23.256;2023-04-24T04:13:18;93456.38;;;9.95;73.56
41690;BME280;27372;42.658;23.256;2023-04-24T04:15:44;93459.34;;;9.65;77.70
41690;BME280;27372;42.658;23.256;2023-04-24T04:18:09;93469.00;;;9.47;75.30
41690;BME280;27372;42.658;23.256;2023-04-24T04:20:35;93459.97;;;9.72;76.27
41690;BME280;27372;42.658;23.256;2023-04-24T04:23:00;93453.28;;;9.82;77.59
41690;BME280;27372;42.658;23.256;2023-04-24T04:25:26;93464.56;;;10.16;76.22
41690;BME280;27372;42.658;23.256;2023-04-24T04:27:51;93473.03;;;10.40;77.65
41690;BME280;27372;42.658;23.256;2023-04-24T04:30:17;93468.50;;;10.53;78.42
41690;BME280;27372;42.658;23.256;2023-04-24T04:32:43;93473.41;;;10.66;76.32
41690;BME280;27372;42.658;23.256;2023-04-24T04:35:09;93464.78;;;10.71;75.39
41690;BME280;27372;42.658;23.256;2023-04-24T04:37:34;93472.53;;;10.83;74.41
41690;BME280;27372;42.658;23.256;2023-04-24T04:40:00;93483.41;;;10.92;74.81
41690;BME280;27372;42.658;23.256;2023-04-24T04:42:26;93495.56;;;10.98;75.83
41690;BME280;27372;42.658;23.256;2023-04-24T04:44:52;93494.59;;;10.82;77.47
41690;BME280;27372;42.658;23.256;2023-04-24T04:47:20;93501.13;;;10.40;78.66
41690;BME280;27372;42.658;23.256;2023-04-24T04:49:47;93497.97;;;10.38;78.61
41690;BME280;27372;42.658;23.256;2023-04-24T04:52:13;93492.22;;;10.24;75.16
41690;BME280;27372;42.658;23.256;2023-04-24T04:54:38;93497.16;;;10.03;76.44
41690;BME280;27372;42.658;23.256;2023-04-24T04:57:05;93497.31;;;10.14;75.88
41690;BME280;27372;42.658;23.256;2023-04-24T04:59:30;93504.06;;;10.44;76.39
41690;BME280;27372;42.658;23.256;2023-04-24T05:01:59;93495.72;;;10.47;76.25
41690;BME280;27372;42.658;23.256;2023-04-24T05:04:24;93506.84;;;10.54;75.61
41690;BME280;27372;42.658;23.256;2023-04-24T05:06:50;93512.56;;;10.51;74.91
41690;BME280;27372;42.658;23.256;2023-04-24T05:09:16;93511.91;;;10.61;74.23
41690;BME280;27372;42.658;23.256;2023-04-24T05:11:41;93495.69;;;10.86;72.01
41690;BME280;27372;42.658;23.256;2023-04-24T05:14:07;93483.81;;;12.63;100.00
41690;BME280;27372;42.658;23.256;2023-04-24T05:16:32;93497.13;;;13.94;92.43
41690;BME280;27372;42.658;23.256;2023-04-24T05:19:17;93494.38;;;14.87;82.47
41690;BME280;27372;42.658;23.256;2023-04-24T05:22:10;93487.56;;;15.41;74.74
41690;BME280;27372;42.658;23.256;2023-04-24T05:24:36;93507.94;;;15.91;66.89
41690;BME280;27372;42.658;23.256;2023-04-24T05:27:02;93504.44;;;16.30;68.43
41690;BME280;27372;42.658;23.256;2023-04-24T05:29:29;93500.41;;;17.16;69.25
41690;BME280;27372;42.658;23.256;2023-04-24T05:31:57;93500.97;;;17.37;63.35
41690;BME280;27372;42.658;23.256;2023-04-24T05:34:22;93496.44;;;16.65;54.50
41690;BME280;27372;42.658;23.256;2023-04-24T05:36:48;93506.69;;;15.73;54.03
41690;BME280;27372;42.658;23.256;2023-04-24T05:39:14;93504.53;;;16.20;62.92
41690;BME280;27372;42.658;23.256;2023-04-24T05:41:40;93497.31;;;17.08;59.60
41690;BME280;27372;42.658;23.256;2023-04-24T05:44:05;93507.41;;;15.89;51.84
41690;BME280;27372;42.658;23.256;2023-04-24T05:46:34;93506.94;;;16.75;54.18
41690;BME280;27372;42.658;23.256;2023-04-24T05:48:59;93500.38;;;17.40;56.00
41690;BME280;27372;42.658;23.256;2023-04-24T05:51:25;93507.59;;;17.59;53.68
41690;BME280;27372;42.658;23.256;2023-04-24T05:53:51;93496.03;;;17.49;51.73
41690;BME280;27372;42.658;23.256;2023-04-24T05:56:17;93501.03;;;17.32;49.26
41690;BME280;27372;42.658;23.256;2023-04-24T05:58:42;93498.19;;;17.47;52.99
41690;BME280;27372;42.658;23.256;2023-04-24T06:01:08;93492.56;;;16.81;49.96
41690;BME280;27372;42.658;23.256;2023-04-24T06:03:33;93504.75;;;16.82;53.49
41690;BME280;27372;42.658;23.256;2023-04-24T06:05:59;93505.22;;;17.38;51.87
41690;BME280;27372;42.658;23.256;2023-04-24T06:08:24;93505.38;;;17.22;50.62
41690;BME280;27372;42.658;23.256;2023-04-24T06:10:51;93505.09;;;17.00;50.88
41690;BME280;27372;42.658;23.256;2023-04-24T06:13:16;93498.13;;;17.09;52.98
41690;BME280;27372;42.658;23.256;2023-04-24T06:15:42;93507.72;;;16.22;47.62
41690;BME280;27372;42.658;23.256;2023-04-24T06:18:08;93503.47;;;15.86;49.11
41690;BME280;27372;42.658;23.256;2023-04-24T06:20:35;93496.03;;;15.83;49.11
41690;BME280;27372;42.658;23.256;2023-04-24T06:23:01;93508.69;;;15.51;50.01
41690;BME280;27372;42.658;23.256;2023-04-24T06:25:26;93509.22;;;15.43;50.46
41690;BME280;27372;42.658;23.256;2023-04-24T06:27:52;93510.94;;;15.13;50.59
41690;BME280;27372;42.658;23.256;2023-04-24T06:30:17;93499.13;;;14.90;50.40
41690;BME280;27372;42.658;23.256;2023-04-24T06:32:43;93500.19;;;14.94;51.17
41690;BME280;27372;42.658;23.256;2023-04-24T06:35:08;93505.72;;;14.98;52.21
41690;BME280;27372;42.658;23.256;2023-04-24T06:37:35;93510.31;;;14.51;54.19
41690;BME280;27372;42.658;23.256;2023-04-24T06:40:00;93509.00;;;14.33;54.76
41690;BME280;27372;42.658;23.256;2023-04-24T06:42:26;93514.03;;;14.08;55.32
41690;BME280;27372;42.658;23.256;2023-04-24T06:44:51;93512.44;;;13.97;56.50
41690;BME280;27372;42.658;23.256;2023-04-24T06:47:17;93520.63;;;14.37;54.40
41690;BME280;27372;42.658;23.256;2023-04-24T06:49:42;93514.25;;;14.53;53.73
41690;BME280;27372;42.658;23.256;2023-04-24T06:52:07;93498.69;;;14.41;53.71
41690;BME280;27372;42.658;23.256;2023-04-24T06:54:33;93518.78;;;14.32;52.93
41690;BME280;27372;42.658;23.256;2023-04-24T06:56:59;93503.44;;;14.39;53.71
41690;BME280;27372;42.658;23.256;2023-04-24T06:59:28;93510.03;;;14.57;53.85
41690;BME280;27372;42.658;23.256;2023-04-24T07:01:55;93499.72;;;14.45;53.63
41690;BME280;27372;42.658;23.256;2023-04-24T07:04:21;93500.75;;;14.75;52.61
41690;BME280;27372;42.658;23.256;2023-04-24T07:06:47;93504.75;;;14.78;53.13
41690;BME280;27372;42.658;23.256;2023-04-24T07:09:12;93493.28;;;14.98;53.20
41690;BME280;27372;42.658;23.256;2023-04-24T07:11:47;93488.16;;;15.22;52.67
41690;BME280;27372;42.658;23.256;2023-04-24T07:14:13;93487.06;;;15.34;51.79
41690;BME280;27372;42.658;23.256;2023-04-24T07:16:42;93485.69;;;15.42;51.52
41690;BME280;27372;42.658;23.256;2023-04-24T07:19:07;93488.16;;;15.22;52.49
41690;BME280;27372;42.658;23.256;2023-04-24T07:21:33;93492.13;;;15.25;51.11
41690;BME280;27372;42.658;23.256;2023-04-24T07:23:58;93492.28;;;15.44;52.08
41690;BME280;27372;42.658;23.256;2023-04-24T07:26:26;93485.56;;;15.62;52.09
41690;BME280;27372;42.658;23.256;2023-04-24T07:28:52;93485.94;;;15.50;52.43
41690;BME280;27372;42.658;23.256;2023-04-24T07:31:17;93482.78;;;15.83;51.37
41690;BME280;27372;42.658;23.256;2023-04-24T07:33:43;93486.31;;;16.13;49.83
41690;BME280;27372;42.658;23.256;2023-04-24T07:36:08;93476.63;;;15.98;50.34
41690;BME280;27372;42.658;23.256;2023-04-24T07:38:40;93466.25;;;16.02;50.05
41690;BME280;27372;42.658;23.256;2023-04-24T07:41:06;93470.53;;;16.32;48.99
41690;BME280;27372;42.658;23.256;2023-04-24T07:43:31;93471.28;;;16.38;48.87
41690;BME280;27372;42.658;23.256;2023-04-24T07:45:57;93479.25;;;16.62;48.66
41690;BME280;27372;42.658;23.256;2023-04-24T07:48:22;93476.72;;;16.76;47.98
41690;BME280;27372;42.658;23.256;2023-04-24T07:50:47;93473.38;;;16.89;47.85
41690;BME280;27372;42.658;23.256;2023-04-24T07:53:13;93478.66;;;16.89;47.45
41690;BME280;27372;42.658;23.256;2023-04-24T07:55:38;93469.44;;;17.11;47.22
41690;BME280;27372;42.658;23.256;2023-04-24T07:58:04;93482.66;;;17.16;46.20
41690;BME280;27372;42.658;23.256;2023-04-24T08:00:29;93472.81;;;17.17;46.57
41690;BME280;27372;42.658;23.256;2023-04-24T08:02:55;93465.03;;;17.26;46.81
41690;BME280;27372;42.658;23.256;2023-04-24T08:05:20;93463.44;;;17.63;45.74
41690;BME280;27372;42.658;23.256;2023-04-24T08:07:46;93471.91;;;17.65;44.55
41690;BME280;27372;42.658;23.256;2023-04-24T08:10:14;93463.75;;;17.61;44.05
41690;BME280;27372;42.658;23.256;2023-04-24T08:12:40;93469.91;;;18.14;44.40
41690;BME280;27372;42.658;23.256;2023-04-24T08:15:06;93459.84;;;18.11;44.35
41690;BME280;27372;42.658;23.256;2023-04-24T08:17:32;93459.91;;;18.53;43.76
41690;BME280;27372;42.658;23.256;2023-04-24T08:19:57;93450.41;;;18.52;43.89
41690;BME280;27372;42.658;23.256;2023-04-24T08:22:29;93460.44;;;17.89;45.55
41690;BME280;27372;42.658;23.256;2023-04-24T08:24:55;93461.97;;;18.28;43.51
41690;BME280;27372;42.658;23.256;2023-04-24T08:27:22;93459.41;;;18.37;43.74
41690;BME280;27372;42.658;23.256;2023-04-24T08:29:48;93440.66;;;18.61;44.07
41690;BME280;27372;42.658;23.256;2023-04-24T08:32:13;93457.91;;;19.05;42.14
41690;BME280;27372;42.658;23.256;2023-04-24T08:34:38;93451.47;;;19.34;42.18
41690;BME280;27372;42.658;23.256;2023-04-24T08:37:04;93449.97;;;19.42;42.21
41690;BME280;27372;42.658;23.256;2023-04-24T08:39:29;93434.66;;;19.11;42.10
41690;BME280;27372;42.658;23.256;2023-04-24T08:41:55;93436.78;;;19.74;41.00
41690;BME280;27372;42.658;23.256;2023-04-24T08:44:21;93422.63;;;19.87;39.98
41690;BME280;27372;42.658;23.256;2023-04-24T08:46:48;93414.41;;;19.97;40.95
41690;BME280;27372;42.658;23.256;2023-04-24T08:49:14;93422.28;;;20.34;39.21
41690;BME280;27372;42.658;23.256;2023-04-24T08:51:43;93416.94;;;20.02;39.45
41690;BME280;27372;42.658;23.256;2023-04-24T08:54:11;93421.63;;;20.28;39.35
41690;BME280;27372;42.658;23.256;2023-04-24T08:56:38;93418.69;;;20.70;38.92
41690;BME280;27372;42.658;23.256;2023-04-24T08:59:06;93406.56;;;21.04;39.50
41690;BME280;27372;42.658;23.256;2023-04-24T09:01:32;93403.00;;;21.53;38.13
41690;BME280;27372;42.658;23.256;2023-04-24T09:04:04;93398.03;;;21.60;37.68
41690;BME280;27372;42.658;23.256;2023-04-24T09:06:30;93400.22;;;21.84;37.13
41690;BME280;27372;42.658;23.256;2023-04-24T09:09:00;93403.19;;;21.83;36.32
41690;BME280;27372;42.658;23.256;2023-04-24T09:11:26;93404.59;;;21.45;36.91
41690;BME280;27372;42.658;23.256;2023-04-24T09:13:52;93396.59;;;21.45;36.76
41690;BME280;27372;42.658;23.256;2023-04-24T09:16:19;93398.28;;;21.32;36.80
41690;BME280;27372;42.658;23.256;2023-04-24T09:18:44;93387.13;;;21.21;37.86
41690;BME280;27372;42.658;23.256;2023-04-24T09:21:10;93390.16;;;21.72;37.33
41690;BME280;27372;42.658;23.256;2023-04-24T09:23:35;93384.72;;;22.34;36.06
41690;BME280;27372;42.658;23.256;2023-04-24T09:26:02;93366.06;;;22.16;35.55
41690;BME280;27372;42.658;23.256;2023-04-24T09:28:39;93377.28;;;22.87;36.10
41690;BME280;27372;42.658;23.256;2023-04-24T09:31:12;93374.56;;;22.66;34.66
41690;BME280;27372;42.658;23.256;2023-04-24T09:33:38;93364.38;;;22.51;34.43
41690;BME280;27372;42.658;23.256;2023-04-24T09:36:04;93373.94;;;21.95;34.58
41690;BME280;27372;42.658;23.256;2023-04-24T09:38:33;93364.38;;;21.68;35.84
41690;BME280;27372;42.658;23.256;2023-04-24T09:41:00;93371.31;;;21.69;35.36
41690;BME280;27372;42.658;23.256;2023-04-24T09:43:28;93381.72;;;22.44;35.12
41690;BME280;27372;42.658;23.256;2023-04-24T09:45:59;93372.47;;;23.02;34.99
41690;BME280;27372;42.658;23.256;2023-04-24T09:48:33;93357.19;;;23.32;33.42
41690;BME280;27372;42.658;23.256;2023-04-24T09:51:01;93363.13;;;23.59;32.59
41690;BME280;27372;42.658;23.256;2023-04-24T09:53:27;93363.03;;;23.68;33.29
41690;BME280;27372;42.658;23.256;2023-04-24T09:55:52;93364.53;;;23.14;33.81
41690;BME280;27372;42.658;23.256;2023-04-24T09:58:24;93372.97;;;22.17;35.86
41690;BME280;27372;42.658;23.256;2023-04-24T10:00:53;93349.63;;;22.44;34.62
41690;BME280;27372;42.658;23.256;2023-04-24T10:03:19;93353.38;;;22.82;33.33
41690;BME280;27372;42.658;23.256;2023-04-24T10:05:46;93350.66;;;23.42;33.51
41690;BME280;27372;42.658;23.256;2023-04-24T10:08:12;93343.50;;;24.47;31.65
41690;BME280;27372;42.658;23.256;2023-04-24T10:10:40;93323.25;;;25.11;31.43
41690;BME280;27372;42.658;23.256;2023-04-24T10:13:07;93329.44;;;25.81;29.81
41690;BME280;27372;42.658;23.256;2023-04-24T10:15:32;93336.28;;;25.38;29.37
41690;BME280;27372;42.658;23.256;2023-04-24T10:17:59;93318.88;;;24.32;30.45
41690;BME280;27372;42.658;23.256;2023-04-24T10:20:27;93305.25;;;24.62;30.62
41690;BME280;27372;42.658;23.256;2023-04-24T10:22:55;93304.81;;;24.48;28.18
41690;BME280;27372;42.658;23.256;2023-04-24T10:25:26;93319.19;;;24.18;29.64
41690;BME280;27372;42.658;23.256;2023-04-24T10:27:53;93321.31;;;23.46;30.22
41690;BME280;27372;42.658;23.256;2023-04-24T10:30:19;93302.66;;;23.07;31.06
41690;BME280;27372;42.658;23.256;2023-04-24T10:32:45;93293.06;;;23.06;30.10
41690;BME280;27372;42.658;23.256;2023-04-24T10:35:15;93305.38;;;22.77;31.02
41690;BME280;27372;42.658;23.256;2023-04-24T10:37:44;93298.59;;;23.98;29.97
41690;BME280;27372;42.658;23.256;2023-04-24T10:40:11;93299.06;;;22.82;30.59
41690;BME280;27372;42.658;23.256;2023-04-24T10:42:40;93294.56;;;22.73;30.25
41690;BME280;27372;42.658;23.256;2023-04-24T10:45:18;93310.06;;;22.11;31.06
41690;BME280;27372;42.658;23.256;2023-04-24T10:48:03;93308.09;;;22.38;30.96
41690;BME280;27372;42.658;23.256;2023-04-24T10:50:41;93315.84;;;21.66;32.26
41690;BME280;27372;42.658;23.256;2023-04-24T10:53:13;93296.91;;;22.45;31.53
41690;BME280;27372;42.658;23.256;2023-04-24T10:56:28;93268.22;;;22.54;31.55
41690;BME280;27372;42.658;23.256;2023-04-24T10:58:37;93303.75;;;21.60;32.59
41690;BME280;27372;42.658;23.256;2023-04-24T11:01:03;93288.81;;;20.97;32.90
41690;BME280;27372;42.658;23.256;2023-04-24T11:03:31;93287.72;;;20.81;33.82
41690;BME280;27372;42.658;23.256;2023-04-24T11:06:08;93296.13;;;19.53;35.11
41690;BME280;27372;42.658;23.256;2023-04-24T11:08:45;93308.00;;;19.10;35.97
41690;BME280;27372;42.658;23.256;2023-04-24T11:16:32;93327.56;;;16.22;47.87
41690;BME280;27372;42.658;23.256;2023-04-24T11:22:01;93358.47;;;15.73;57.71
41690;BME280;27372;42.658;23.256;2023-04-24T11:35:06;93334.69;;;15.33;65.14
41690;BME280;27372;42.658;23.256;2023-04-24T11:37:40;93334.13;;;14.96;68.82
41690;BME280;27372;42.658;23.256;2023-04-24T11:40:08;93313.41;;;15.14;68.86
41690;BME280;27372;42.658;23.256;2023-04-24T11:42:42;93301.75;;;15.79;72.16
41690;BME280;27372;42.658;23.256;2023-04-24T11:45:09;93310.81;;;15.73;73.15
41690;BME280;27372;42.658;23.256;2023-04-24T11:47:35;93306.63;;;15.96;76.06
41690;BME280;27372;42.658;23.256;2023-04-24T11:50:01;93303.94;;;16.69;73.11
41690;BME280;27372;42.658;23.256;2023-04-24T11:52:28;93294.72;;;17.04;70.52
41690;BME280;27372;42.658;23.256;2023-04-24T11:54:54;93301.16;;;17.50;57.83
41690;BME280;27372;42.658;23.256;2023-04-24T11:57:21;93281.97;;;17.73;54.02
41690;BME280;27372;42.658;23.256;2023-04-24T11:59:47;93279.97;;;18.25;50.50
41690;BME280;27372;42.658;23.256;2023-04-24T12:02:25;93268.19;;;17.84;52.78
41690;BME280;27372;42.658;23.256;2023-04-24T12:04:52;93266.75;;;18.85;53.51
41690;BME280;27372;42.658;23.256;2023-04-24T12:07:18;93270.69;;;20.01;50.64
41690;BME280;27372;42.658;23.256;2023-04-24T12:09:49;93278.84;;;20.05;50.26
41690;BME280;27372;42.658;23.256;2023-04-24T12:12:19;93282.66;;;19.35;47.55
41690;BME280;27372;42.658;23.256;2023-04-24T12:14:48;93276.25;;;19.14;45.66
41690;BME280;27372;42.658;23.256;2023-04-24T12:17:15;93276.44;;;18.95;45.38
41690;BME280;27372;42.658;23.256;2023-04-24T12:19:45;93259.50;;;19.36;43.86
41690;BME280;27372;42.658;23.256;2023-04-24T12:22:12;93252.75;;;19.07;44.45
41690;BME280;27372;42.658;23.256;2023-04-24T12:24:56;93229.50;;;19.21;44.84
41690;BME280;27372;42.658;23.256;2023-04-24T12:27:22;93232.72;;;19.32;45.97
41690;BME280;27372;42.658;23.256;2023-04-24T12:29:52;93233.38;;;19.15;45.21
41690;BME280;27372;42.658;23.256;2023-04-24T12:32:18;93235.84;;;19.34;42.99
41690;BME280;27372;42.658;23.256;2023-04-24T12:34:44;93232.06;;;20.39;42.15
41690;BME280;27372;42.658;23.256;2023-04-24T12:37:13;93232.09;;;20.47;41.51
41690;BME280;27372;42.658;23.256;2023-04-24T12:39:38;93220.09;;;20.10;43.05
41690;BME280;27372;42.658;23.256;2023-04-24T12:42:04;93221.19;;;19.77;40.80
41690;BME280;27372;42.658;23.256;2023-04-24T12:44:33;93211.31;;;19.78;41.34
41690;BME280;27372;42.658;23.256;2023-04-24T12:47:03;93204.06;;;19.06;41.91
41690;BME280;27372;42.658;23.256;2023-04-24T12:49:31;93197.78;;;19.65;43.03
41690;BME280;27372;42.658;23.256;2023-04-24T12:51:57;93203.63;;;19.13;42.40
41690;BME280;27372;42.658;23.256;2023-04-24T12:54:22;93187.19;;;18.74;44.84
41690;BME280;27372;42.658;23.256;2023-04-24T12:56:48;93180.75;;;18.89;42.53
41690;BME280;27372;42.658;23.256;2023-04-24T12:59:13;93172.84;;;19.21;43.34
41690;BME280;27372;42.658;23.256;2023-04-24T13:01:39;93164.41;;;19.59;43.62
41690;BME280;27372;42.658;23.256;2023-04-24T13:04:05;93172.50;;;20.70;40.08
41690;BME280;27372;42.658;23.256;2023-04-24T13:06:30;93162.56;;;20.26;39.08
41690;BME280;27372;42.658;23.256;2023-04-24T13:08:56;93158.13;;;19.95;39.58